sensor_id;sensor_type;location;lat;lon;timestamp;pressure;altitude;pressure_sealevel;temperature;humidity
83248;BME280;73465;51.038;7.052;2024-02-26T00:01:31;99041.31;;;8.34;58.57
83248;BME280;73465;51.038;7.052;2024-02-26T00:03:58;99028.25;;;8.32;59.00
83248;BME280;73465;51.038;7.052;2024-02-26T00:06:27;99052.34;;;8.25;60.63
83248;BME280;73465;51.038;7.052;2024-02-26T00:08:52;99053.00;;;8.28;60.58
83248;BME280;73465;51.038;7.052;2024-02-26T00:11:17;99045.91;;;8.30;61.28
83248;BME280;73465;51.038;7.052;2024-02-26T00:13:42;99055.19;;;8.22;62.48
83248;BME280;73465;51.038;7.052;2024-02-26T00:16:08;99051.34;;;8.13;63.47
83248;BME280;73465;51.038;7.052;2024-02-26T00:18:33;99056.78;;;7.95;64.02
83248;BME280;73465;51.038;7.052;2024-02-26T00:20:59;99048.94;;;7.95;63.60
83248;BME280;73465;51.038;7.052;2024-02-26T00:23:25;99049.03;;;7.79;65.30
83248;BME280;73465;51.038;7.052;2024-02-26T00:25:52;99041.44;;;7.89;65.21
83248;BME280;73465;51.038;7.052;2024-02-26T00:28:17;99045.19;;;7.85;64.70
83248;BME280;73465;51.038;7.052;2024-02-26T00:30:45;99046.78;;;7.87;64.19
83248;BME280;73465;51.038;7.052;2024-02-26T00:33:11;99050.22;;;7.88;64.23
83248;BME280;73465;51.038;7.052;2024-02-26T00:35:36;99048.09;;;7.80;65.32
83248;BME280;73465;51.038;7.052;2024-02-26T00:38:02;99038.91;;;7.59;64.70
83248;BME280;73465;51.038;7.052;2024-02-26T00:40:29;99040.69;;;7.58;65.32
83248;BME280;73465;51.038;7.052;2024-02-26T00:42:54;99031.59;;;7.64;65.34
83248;BME280;73465;51.038;7.052;2024-02-26T00:45:20;99027.97;;;7.52;65.45
83248;BME280;73465;51.038;7.052;2024-02-26T00:47:46;99038.06;;;7.58;64.55
83248;BME280;73465;51.038;7.052;2024-02-26T00:50:12;99036.66;;;7.67;64.42
83248;BME280;73465;51.038;7.052;2024-02-26T00:52:38;99029.75;;;7.66;64.60
83248;BME280;73465;51.038;7.052;2024-02-26T00:55:04;99025.53;;;7.63;64.67
83248;BME280;73465;51.038;7.052;2024-02-26T00:57:30;99026.94;;;7.69;64.35
83248;BME280;73465;51.038;7.052;2024-02-26T00:59:55;99029.47;;;7.70;64.60
83248;BME280;73465;51.038;7.052;2024-02-26T01:02:22;99023.31;;;7.71;64.33
83248;BME280;73465;51.038;7.052;2024-02-26T01:04:47;99025.81;;;7.73;64.37
83248;BME280;73465;51.038;7.052;2024-02-26T01:07:13;99027.78;;;7.69;64.17
83248;BME280;73465;51.038;7.052;2024-02-26T01:09:38;99029.34;;;7.58;64.67
83248;BME280;73465;51.038;7.052;2024-02-26T01:12:04;99027.59;;;7.58;64.89
83248;BME280;73465;51.038;7.052;2024-02-26T01:14:31;99032.47;;;7.64;65.32
83248;BME280;73465;51.038;7.052;2024-02-26T01:16:56;99029.28;;;7.59;65.43
83248;BME280;73465;51.038;7.052;2024-02-26T01:19:23;99033.75;;;7.43;66.11
83248;BME280;73465;51.038;7.052;2024-02-26T01:21:48;99038.16;;;7.42;66.54
83248;BME280;73465;51.038;7.052;2024-02-26T01:24:13;99035.25;;;7.32;67.24
83248;BME280;73465;51.038;7.052;2024-02-26T01:26:39;99022.50;;;7.26;67.80
83248;BME280;73465;51.038;7.052;2024-02-26T01:29:04;99030.94;;;7.31;68.38
83248;BME280;73465;51.038;7.052;2024-02-26T01:31:29;99025.50;;;7.20;69.44
83248;BME280;73465;51.038;7.052;2024-02-26T01:33:55;99014.69;;;6.96;69.75
83248;BME280;73465;51.038;7.052;2024-02-26T01:36:20;99026.16;;;6.93;70.47
83248;BME280;73465;51.038;7.052;2024-02-26T01:38:46;99022.78;;;6.91;70.04
83248;BME280;73465;51.038;7.052;2024-02-26T01:41:13;99021.34;;;6.85;70.82
83248;BME280;73465;51.038;7.052;2024-02-26T01:43:39;99022.31;;;6.84;70.96
83248;BME280;73465;51.038;7.052;2024-02-26T01:46:04;99027.19;;;6.90;70.96
83248;BME280;73465;51.038;7.052;2024-02-26T01:48:30;99027.50;;;7.00;71.41
83248;BME280;73465;51.038;7.052;2024-02-26T01:50:55;99025.31;;;6.93;71.31
83248;BME280;73465;51.038;7.052;2024-02-26T01:53:21;99025.81;;;6.99;71.37
83248;BME280;73465;51.038;7.052;2024-02-26T01:55:46;99015.97;;;6.88;71.92
83248;BME280;73465;51.038;7.052;2024-02-26T01:58:11;99008.94;;;6.89;72.23
83248;BME280;73465;51.038;7.052;2024-02-26T02:00:37;99004.41;;;6.77;73.39
83248;BME280;73465;51.038;7.052;2024-02-26T02:03:05;99005.97;;;6.65;73.53
83248;BME280;73465;51.038;7.052;2024-02-26T02:05:30;99009.69;;;6.61;73.07
83248;BME280;73465;51.038;7.052;2024-02-26T02:07:57;99002.41;;;6.66;73.70
83248;BME280;73465;51.038;7.052;2024-02-26T02:10:25;99016.75;;;6.74;73.47
83248;BME280;73465;51.038;7.052;2024-02-26T02:12:51;99007.75;;;6.64;73.79
83248;BME280;73465;51.038;7.052;2024-02-26T02:15:17;99009.00;;;6.57;73.31
83248;BME280;73465;51.038;7.052;2024-02-26T02:17:42;99009.34;;;6.67;73.15
83248;BME280;73465;51.038;7.052;2024-02-26T02:20:19;99008.09;;;6.58;74.10
83248;BME280;73465;51.038;7.052;2024-02-26T02:22:45;99008.09;;;6.58;73.93
83248;BME280;73465;51.038;7.052;2024-02-26T02:25:10;99007.75;;;6.64;74.56
83248;BME280;73465;51.038;7.052;2024-02-26T02:27:36;99007.47;;;6.69;74.66
83248;BME280;73465;51.038;7.052;2024-02-26T02:30:02;99001.00;;;6.60;74.18
83248;BME280;73465;51.038;7.052;2024-02-26T02:32:28;99007.75;;;6.64;73.80
83248;BME280;73465;51.038;7.052;2024-02-26T02:34:55;99008.84;;;6.60;74.34
83248;BME280;73465;51.038;7.052;2024-02-26T02:37:21;99000.16;;;6.59;74.52
83248;BME280;73465;51.038;7.052;2024-02-26T02:39:46;98999.16;;;6.62;73.74
83248;BME280;73465;51.038;7.052;2024-02-26T02:42:12;99004.03;;;6.68;73.96
83248;BME280;73465;51.038;7.052;2024-02-26T02:44:38;99006.31;;;6.74;74.19
83248;BME280;73465;51.038;7.052;2024-02-26T02:47:03;99001.22;;;6.71;73.96
83248;BME280;73465;51.038;7.052;2024-02-26T02:49:28;99002.50;;;6.64;74.21
83248;BME280;73465;51.038;7.052;2024-02-26T02:51:54;99005.78;;;6.68;74.13
83248;BME280;73465;51.038;7.052;2024-02-26T02:54:19;98998.19;;;6.63;74.44
83248;BME280;73465;51.038;7.052;2024-02-26T02:56:45;98997.84;;;6.69;74.16
83248;BME280;73465;51.038;7.052;2024-02-26T02:59:10;98990.66;;;6.73;74.41
83248;BME280;73465;51.038;7.052;2024-02-26T03:01:35;98995.44;;;6.66;74.52
83248;BME280;73465;51.038;7.052;2024-02-26T03:04:01;99001.59;;;6.65;74.46
83248;BME280;73465;51.038;7.052;2024-02-26T03:06:26;98986.59;;;6.53;74.60
83248;BME280;73465;51.038;7.052;2024-02-26T03:08:53;98991.47;;;6.59;74.55
83248;BME280;73465;51.038;7.052;2024-02-26T03:11:19;98984.84;;;6.37;74.97
83248;BME280;73465;51.038;7.052;2024-02-26T03:13:45;98988.28;;;6.54;75.05
83248;BME280;73465;51.038;7.052;2024-02-26T03:16:10;98993.88;;;6.48;75.51
83248;BME280;73465;51.038;7.052;2024-02-26T03:18:38;98994.59;;;6.50;75.30
83248;BME280;73465;51.038;7.052;2024-02-26T03:21:04;98991.97;;;6.50;75.42
83248;BME280;73465;51.038;7.052;2024-02-26T03:23:29;99000.00;;;6.47;75.22
83248;BME280;73465;51.038;7.052;2024-02-26T03:25:57;98996.28;;;6.51;75.32
83248;BME280;73465;51.038;7.052;2024-02-26T03:28:23;98991.97;;;6.50;76.19
83248;BME280;73465;51.038;7.052;2024-02-26T03:30:48;98992.84;;;6.50;75.39
83248;BME280;73465;51.038;7.052;2024-02-26T03:33:13;98996.97;;;6.54;75.81
83248;BME280;73465;51.038;7.052;2024-02-26T03:35:39;98990.31;;;6.49;76.23
83248;BME280;73465;51.038;7.052;2024-02-26T03:38:04;98999.91;;;6.48;76.14
83248;BME280;73465;51.038;7.052;2024-02-26T03:40:29;98986.94;;;6.47;76.38
83248;BME280;73465;51.038;7.052;2024-02-26T03:42:55;98987.72;;;6.49;76.29
83248;BME280;73465;51.038;7.052;2024-02-26T03:45:22;98987.22;;;6.26;76.92
83248;BME280;73465;51.038;7.052;2024-02-26T03:47:47;98990.81;;;6.39;76.72
83248;BME280;73465;51.038;7.052;2024-02-26T03:50:13;98987.28;;;6.40;77.43
83248;BME280;73465;51.038;7.052;2024-02-26T03:52:38;98990.81;;;6.55;77.21
83248;BME280;73465;51.038;7.052;2024-02-26T03:55:04;98987.63;;;6.34;77.09
83248;BME280;73465;51.038;7.052;2024-02-26T03:57:29;98991.59;;;6.41;77.84
83248;BME280;73465;51.038;7.052;2024-02-26T03:59:56;98986.44;;;6.40;77.76
83248;BME280;73465;51.038;7.052;2024-02-26T04:02:21;98988.47;;;6.35;77.24
83248;BME280;73465;51.038;7.052;2024-02-26T04:04:48;98992.88;;;6.34;78.24
83248;BME280;73465;51.038;7.052;2024-02-26T04:07:14;98990.66;;;6.42;77.69
83248;BME280;73465;51.038;7.052;2024-02-26T04:09:39;98995.28;;;6.37;77.65
83248;BME280;73465;51.038;7.052;2024-02-26T04:12:05;99001.44;;;6.52;77.30
83248;BME280;73465;51.038;7.052;2024-02-26T04:14:30;98997.88;;;6.53;77.48
83248;BME280;73465;51.038;7.052;2024-02-26T04:16:56;98995.56;;;6.49;77.40
83248;BME280;73465;51.038;7.052;2024-02-26T04:19:21;99005.34;;;6.45;77.32
83248;BME280;73465;51.038;7.052;2024-02-26T04:21:46;99013.84;;;6.49;77.41
83248;BME280;73465;51.038;7.052;2024-02-26T04:24:12;99010.63;;;6.43;77.65
83248;BME280;73465;51.038;7.052;2024-02-26T04:26:37;99016.03;;;6.56;76.82
83248;BME280;73465;51.038;7.052;2024-02-26T04:29:02;99020.84;;;6.48;77.55
83248;BME280;73465;51.038;7.052;2024-02-26T04:31:29;99024.56;;;6.44;78.30
83248;BME280;73465;51.038;7.052;2024-02-26T04:33:56;99029.88;;;6.42;77.75
83248;BME280;73465;51.038;7.052;2024-02-26T04:36:21;99034.09;;;6.61;77.68
83248;BME280;73465;51.038;7.052;2024-02-26T04:38:47;99031.81;;;6.55;77.55
83248;BME280;73465;51.038;7.052;2024-02-26T04:41:12;99039.56;;;6.56;78.18
83248;BME280;73465;51.038;7.052;2024-02-26T04:43:37;99040.59;;;6.54;78.34
83248;BME280;73465;51.038;7.052;2024-02-26T04:46:07;99054.22;;;6.59;78.66
83248;BME280;73465;51.038;7.052;2024-02-26T04:48:34;99045.72;;;6.55;78.23
83248;BME280;73465;51.038;7.052;2024-02-26T04:50:59;99053.06;;;6.65;78.14
83248;BME280;73465;51.038;7.052;2024-02-26T04:53:24;99058.78;;;6.55;79.10
83248;BME280;73465;51.038;7.052;2024-02-26T04:55:50;99057.44;;;6.64;79.05
83248;BME280;73465;51.038;7.052;2024-02-26T04:58:15;99071.44;;;6.63;78.95
83248;BME280;73465;51.038;7.052;2024-02-26T05:00:40;99070.25;;;6.53;79.41
83248;BME280;73465;51.038;7.052;2024-02-26T05:03:06;99055.94;;;6.60;79.10
83248;BME280;73465;51.038;7.052;2024-02-26T05:05:31;99057.97;;;6.55;78.83
83248;BME280;73465;51.038;7.052;2024-02-26T05:07:56;99068.00;;;6.47;79.29
83248;BME280;73465;51.038;7.052;2024-02-26T05:10:21;99068.75;;;6.49;79.84
83248;BME280;73465;51.038;7.052;2024-02-26T05:12:47;99063.59;;;6.47;79.44
83248;BME280;73465;51.038;7.052;2024-02-26T05:15:13;99064.03;;;6.39;80.00
83248;BME280;73465;51.038;7.052;2024-02-26T05:17:43;99064.19;;;6.36;80.20
83248;BME280;73465;51.038;7.052;2024-02-26T05:20:09;99061.84;;;6.32;80.47
83248;BME280;73465;51.038;7.052;2024-02-26T05:22:34;99056.69;;;6.30;81.01
83248;BME280;73465;51.038;7.052;2024-02-26T05:24:59;99058.31;;;6.33;81.04
83248;BME280;73465;51.038;7.052;2024-02-26T05:27:25;99055.94;;;6.28;80.84
83248;BME280;73465;51.038;7.052;2024-02-26T05:29:50;99055.50;;;6.20;80.88
83248;BME280;73465;51.038;7.052;2024-02-26T05:32:17;99047.50;;;6.23;81.37
83248;BME280;73465;51.038;7.052;2024-02-26T05:34:42;99053.03;;;6.17;80.84
83248;BME280;73465;51.038;7.052;2024-02-26T05:37:07;99057.97;;;6.23;81.04
83248;BME280;73465;51.038;7.052;2024-02-26T05:39:32;99047.81;;;6.17;81.46
83248;BME280;73465;51.038;7.052;2024-02-26T05:42:00;99059.91;;;6.19;81.51
83248;BME280;73465;51.038;7.052;2024-02-26T05:44:26;99068.41;;;6.23;81.18
83248;BME280;73465;51.038;7.052;2024-02-26T05:46:51;99071.03;;;6.23;81.20
83248;BME280;73465;51.038;7.052;2024-02-26T05:49:17;99079.22;;;6.33;81.53
83248;BME280;73465;51.038;7.052;2024-02-26T05:51:42;99077.19;;;6.22;81.75
83248;BME280;73465;51.038;7.052;2024-02-26T05:54:07;99087.13;;;6.31;81.14
83248;BME280;73465;51.038;7.052;2024-02-26T05:56:33;99084.34;;;6.34;81.31
83248;BME280;73465;51.038;7.052;2024-02-26T05:58:58;99087.13;;;6.31;81.65
83248;BME280;73465;51.038;7.052;2024-02-26T06:01:24;99090.75;;;6.29;81.67
83248;BME280;73465;51.038;7.052;2024-02-26T06:03:51;99099.44;;;6.29;81.59
83248;BME280;73465;51.038;7.052;2024-02-26T06:06:17;99095.56;;;6.36;81.46
83248;BME280;73465;51.038;7.052;2024-02-26T06:08:43;99096.06;;;6.27;81.06
83248;BME280;73465;51.038;7.052;2024-02-26T06:11:08;99102.06;;;6.29;80.75
83248;BME280;73465;51.038;7.052;2024-02-26T06:13:35;99100.69;;;6.22;80.93
83248;BME280;73465;51.038;7.052;2024-02-26T06:16:00;99106.00;;;6.36;81.48
83248;BME280;73465;51.038;7.052;2024-02-26T06:18:26;99107.44;;;6.26;80.87
83248;BME280;73465;51.038;7.052;2024-02-26T06:20:51;99102.31;;;6.24;80.98
83248;BME280;73465;51.038;7.052;2024-02-26T06:23:16;99119.31;;;6.16;81.29
83248;BME280;73465;51.038;7.052;2024-02-26T06:25:42;99116.28;;;6.23;81.49
83248;BME280;73465;51.038;7.052;2024-02-26T06:28:08;99118.13;;;6.21;81.12
83248;BME280;73465;51.038;7.052;2024-02-26T06:30:33;99116.13;;;6.26;81.25
83248;BME280;73465;51.038;7.052;2024-02-26T06:33:00;99128.44;;;6.24;81.39
83248;BME280;73465;51.038;7.052;2024-02-26T06:35:26;99128.69;;;6.20;81.79
83248;BME280;73465;51.038;7.052;2024-02-26T06:37:52;99124.91;;;6.25;81.56
83248;BME280;73465;51.038;7.052;2024-02-26T06:40:18;99134.03;;;6.34;81.57
83248;BME280;73465;51.038;7.052;2024-02-26T06:42:44;99130.19;;;6.24;82.04
83248;BME280;73465;51.038;7.052;2024-02-26T06:45:09;99110.19;;;6.07;81.89
83248;BME280;73465;51.038;7.052;2024-02-26T06:47:35;99128.91;;;6.15;81.81
83248;BME280;73465;51.038;7.052;2024-02-26T06:50:00;99128.19;;;6.13;81.91
83248;BME280;73465;51.038;7.052;2024-02-26T06:52:26;99131.41;;;6.01;82.51
83248;BME280;73465;51.038;7.052;2024-02-26T06:54:52;99144.31;;;6.04;82.36
83248;BME280;73465;51.038;7.052;2024-02-26T06:57:19;99147.94;;;6.01;82.16
83248;BME280;73465;51.038;7.052;2024-02-26T06:59:44;99153.25;;;6.00;83.12
83248;BME280;73465;51.038;7.052;2024-02-26T07:02:13;99159.31;;;6.00;82.65
83248;BME280;73465;51.038;7.052;2024-02-26T07:04:38;99154.00;;;6.02;82.19
83248;BME280;73465;51.038;7.052;2024-02-26T07:07:03;99156.56;;;6.03;82.09
83248;BME280;73465;51.038;7.052;2024-02-26T07:09:29;99161.94;;;6.00;82.78
83248;BME280;73465;51.038;7.052;2024-02-26T07:11:54;99165.75;;;5.93;82.55
83248;BME280;73465;51.038;7.052;2024-02-26T07:14:19;99162.91;;;5.98;82.48
83248;BME280;73465;51.038;7.052;2024-02-26T07:16:45;99171.47;;;6.01;82.07
83248;BME280;73465;51.038;7.052;2024-02-26T07:19:10;99169.22;;;5.93;82.63
83248;BME280;73465;51.038;7.052;2024-02-26T07:21:35;99168.75;;;6.03;81.82
83248;BME280;73465;51.038;7.052;2024-02-26T07:24:01;99175.00;;;6.00;82.10
83248;BME280;73465;51.038;7.052;2024-02-26T07:26:28;99179.22;;;6.03;82.23
83248;BME280;73465;51.038;7.052;2024-02-26T07:28:55;99181.13;;;5.99;82.07
83248;BME280;73465;51.038;7.052;2024-02-26T07:31:21;99175.06;;;5.99;82.67
83248;BME280;73465;51.038;7.052;2024-02-26T07:33:46;99180.22;;;6.00;82.13
83248;BME280;73465;51.038;7.052;2024-02-26T07:36:11;99168.97;;;5.98;81.74
83248;BME280;73465;51.038;7.052;2024-02-26T07:38:40;99185.34;;;6.02;81.98
83248;BME280;73465;51.038;7.052;2024-02-26T07:41:05;99182.94;;;5.97;82.12
83248;BME280;73465;51.038;7.052;2024-02-26T07:43:30;99186.34;;;5.99;81.33
83248;BME280;73465;51.038;7.052;2024-02-26T07:45:55;99190.16;;;5.92;82.05
83248;BME280;73465;51.038;7.052;2024-02-26T07:48:21;99189.13;;;5.96;82.65
83248;BME280;73465;51.038;7.052;2024-02-26T07:50:47;99183.94;;;5.94;82.33
83248;BME280;73465;51.038;7.052;2024-02-26T07:53:13;99192.03;;;5.90;82.67
83248;BME280;73465;51.038;7.052;2024-02-26T07:55:38;99193.56;;;5.94;82.61
83248;BME280;73465;51.038;7.052;2024-02-26T07:58:04;99196.09;;;5.95;82.35
83248;BME280;73465;51.038;7.052;2024-02-26T08:00:29;99203.47;;;5.87;82.58
83248;BME280;73465;51.038;7.052;2024-02-26T08:02:54;99200.47;;;5.95;82.61
83248;BME280;73465;51.038;7.052;2024-02-26T08:05:20;99200.19;;;5.84;82.05
83248;BME280;73465;51.038;7.052;2024-02-26T08:07:45;99209.16;;;5.78;83.01
83248;BME280;73465;51.038;7.052;2024-02-26T08:10:10;99214.06;;;5.84;82.15
83248;BME280;73465;51.038;7.052;2024-02-26T08:12:37;99212.38;;;5.83;82.51
83248;BME280;73465;51.038;7.052;2024-02-26T08:15:03;99214.06;;;5.84;82.55
83248;BME280;73465;51.038;7.052;2024-02-26T08:17:29;99221.53;;;5.92;82.63
83248;BME280;73465;51.038;7.052;2024-02-26T08:19:55;99222.75;;;5.85;82.52
83248;BME280;73465;51.038;7.052;2024-02-26T08:22:20;99215.16;;;5.80;83.04
83248;BME280;73465;51.038;7.052;2024-02-26T08:24:45;99224.31;;;5.89;82.73
83248;BME280;73465;51.038;7.052;2024-02-26T08:27:12;99216.53;;;5.70;82.65
83248;BME280;73465;51.038;7.052;2024-02-26T08:29:37;99221.09;;;5.84;82.97
83248;BME280;73465;51.038;7.052;2024-02-26T08:32:04;99237.16;;;5.93;82.54
83248;BME280;73465;51.038;7.052;2024-02-26T08:34:30;99220.44;;;5.78;83.04
83248;BME280;73465;51.038;7.052;2024-02-26T08:36:56;99237.69;;;6.00;82.95
83248;BME280;73465;51.038;7.052;2024-02-26T08:39:21;99234.63;;;6.09;82.96
83248;BME280;73465;51.038;7.052;2024-02-26T08:41:46;99240.91;;;6.23;82.76
83248;BME280;73465;51.038;7.052;2024-02-26T08:44:12;99243.75;;;6.18;82.48
83248;BME280;73465;51.038;7.052;2024-02-26T08:46:37;99253.81;;;6.26;81.95
83248;BME280;73465;51.038;7.052;2024-02-26T08:49:03;99248.81;;;6.21;82.58
83248;BME280;73465;51.038;7.052;2024-02-26T08:51:28;99239.97;;;6.24;82.14
83248;BME280;73465;51.038;7.052;2024-02-26T08:53:54;99233.00;;;6.24;82.21
83248;BME280;73465;51.038;7.052;2024-02-26T08:56:19;99236.16;;;6.14;82.81
83248;BME280;73465;51.038;7.052;2024-02-26T08:58:47;99238.13;;;6.26;82.26
83248;BME280;73465;51.038;7.052;2024-02-26T09:01:14;99249.81;;;6.19;82.72
83248;BME280;73465;51.038;7.052;2024-02-26T09:03:40;99249.41;;;6.26;82.49
83248;BME280;73465;51.038;7.052;2024-02-26T09:06:05;99246.44;;;6.17;81.60
83248;BME280;73465;51.038;7.052;2024-02-26T09:08:32;99257.75;;;6.17;82.16
83248;BME280;73465;51.038;7.052;2024-02-26T09:10:58;99254.00;;;6.23;82.15
83248;BME280;73465;51.038;7.052;2024-02-26T09:13:23;99240.59;;;6.12;82.24
83248;BME280;73465;51.038;7.052;2024-02-26T09:15:48;99260.72;;;6.27;82.21
83248;BME280;73465;51.038;7.052;2024-02-26T09:18:14;99267.56;;;6.30;81.98
83248;BME280;73465;51.038;7.052;2024-02-26T09:20:41;99261.44;;;6.31;82.04
83248;BME280;73465;51.038;7.052;2024-02-26T09:23:06;99265.78;;;6.30;82.09
83248;BME280;73465;51.038;7.052;2024-02-26T09:25:32;99267.19;;;6.20;82.05
83248;BME280;73465;51.038;7.052;2024-02-26T09:27:59;99282.47;;;6.28;81.39
83248;BME280;73465;51.038;7.052;2024-02-26T09:30:24;99279.81;;;6.29;81.16
83248;BME280;73465;51.038;7.052;2024-02-26T09:32:49;99292.34;;;6.22;81.76
83248;BME280;73465;51.038;7.052;2024-02-26T09:35:17;99291.94;;;6.13;81.81
83248;BME280;73465;51.038;7.052;2024-02-26T09:37:42;99300.25;;;6.21;81.55
83248;BME280;73465;51.038;7.052;2024-02-26T09:40:10;99301.78;;;6.25;81.01
83248;BME280;73465;51.038;7.052;2024-02-26T09:42:37;99296.03;;;6.18;81.40
83248;BME280;73465;51.038;7.052;2024-02-26T09:45:10;99308.94;;;6.21;81.13
83248;BME280;73465;51.038;7.052;2024-02-26T09:47:37;99309.53;;;6.26;81.33
83248;BME280;73465;51.038;7.052;2024-02-26T09:50:05;99315.16;;;6.36;81.30
83248;BME280;73465;51.038;7.052;2024-02-26T09:52:33;99326.38;;;6.38;81.79
83248;BME280;73465;51.038;7.052;2024-02-26T09:54:59;99316.47;;;6.28;81.64
83248;BME280;73465;51.038;7.052;2024-02-26T09:57:25;99321.00;;;6.24;81.61
83248;BME280;73465;51.038;7.052;2024-02-26T09:59:53;99314.84;;;6.25;81.38
83248;BME280;73465;51.038;7.052;2024-02-26T10:02:20;99319.63;;;6.34;82.10
83248;BME280;73465;51.038;7.052;2024-02-26T10:04:46;99326.56;;;6.35;81.44
83248;BME280;73465;51.038;7.052;2024-02-26T10:07:14;99321.94;;;6.40;81.30
83248;BME280;73465;51.038;7.052;2024-02-26T10:09:40;99321.63;;;6.47;81.64
83248;BME280;73465;51.038;7.052;2024-02-26T10:12:09;99325.75;;;6.51;81.52
83248;BME280;73465;51.038;7.052;2024-02-26T10:14:36;99337.81;;;6.53;80.73
83248;BME280;73465;51.038;7.052;2024-02-26T10:17:02;99325.94;;;6.48;81.58
83248;BME280;73465;51.038;7.052;2024-02-26T10:19:28;99322.72;;;6.42;81.46
83248;BME280;73465;51.038;7.052;2024-02-26T10:21:58;99333.38;;;6.55;80.43
83248;BME280;73465;51.038;7.052;2024-02-26T10:24:24;99338.50;;;6.57;80.26
83248;BME280;73465;51.038;7.052;2024-02-26T10:26:50;99346.44;;;6.55;80.71
83248;BME280;73465;51.038;7.052;2024-02-26T10:29:18;99343.50;;;6.62;80.47
83248;BME280;73465;51.038;7.052;2024-02-26T10:31:43;99343.28;;;6.66;80.56
83248;BME280;73465;51.038;7.052;2024-02-26T10:34:08;99351.22;;;6.65;81.33
83248;BME280;73465;51.038;7.052;2024-02-26T10:36:34;99348.47;;;6.84;80.24
83248;BME280;73465;51.038;7.052;2024-02-26T10:39:02;99346.00;;;6.98;80.46
83248;BME280;73465;51.038;7.052;2024-02-26T10:41:29;99349.63;;;6.96;79.72
83248;BME280;73465;51.038;7.052;2024-02-26T10:43:54;99356.19;;;6.87;79.43
83248;BME280;73465;51.038;7.052;2024-02-26T10:46:19;99352.88;;;6.83;79.74
83248;BME280;73465;51.038;7.052;2024-02-26T10:48:52;99361.09;;;6.93;79.64
83248;BME280;73465;51.038;7.052;2024-02-26T10:51:28;99357.91;;;7.04;80.16
83248;BME280;73465;51.038;7.052;2024-02-26T10:53:58;99361.78;;;6.97;80.13
83248;BME280;73465;51.038;7.052;2024-02-26T10:56:30;99367.09;;;7.11;79.61
83248;BME280;73465;51.038;7.052;2024-02-26T10:58:58;99370.38;;;7.32;80.62
83248;BME280;73465;51.038;7.052;2024-02-26T11:01:25;99366.41;;;7.41;78.43
83248;BME280;73465;51.038;7.052;2024-02-26T11:03:51;99373.56;;;7.21;79.60
83248;BME280;73465;51.038;7.052;2024-02-26T11:06:18;99379.41;;;7.27;79.26
83248;BME280;73465;51.038;7.052;2024-02-26T11:08:48;99368.91;;;7.27;80.30
83248;BME280;73465;51.038;7.052;2024-02-26T11:11:14;99387.72;;;7.51;79.26
83248;BME280;73465;51.038;7.052;2024-02-26T11:13:42;99394.13;;;7.61;78.57
83248;BME280;73465;51.038;7.052;2024-02-26T11:16:11;99383.81;;;7.26;79.31
83248;BME280;73465;51.038;7.052;2024-02-26T11:18:37;99379.59;;;7.39;79.26
83248;BME280;73465;51.038;7.052;2024-02-26T11:21:06;99391.16;;;7.35;79.61
83248;BME280;73465;51.038;7.052;2024-02-26T11:23:35;99392.41;;;7.28;79.23
83248;BME280;73465;51.038;7.052;2024-02-26T11:26:04;99397.25;;;7.36;80.10
83248;BME280;73465;51.038;7.052;2024-02-26T11:28:32;99399.91;;;7.34;79.60
83248;BME280;73465;51.038;7.052;2024-02-26T11:30:59;99402.22;;;7.41;79.36
83248;BME280;73465;51.038;7.052;2024-02-26T11:33:26;99404.34;;;7.66;79.32
83248;BME280;73465;51.038;7.052;2024-02-26T11:35:53;99402.16;;;7.58;79.56
83248;BME280;73465;51.038;7.052;2024-02-26T11:38:20;99403.69;;;7.62;79.37
83248;BME280;73465;51.038;7.052;2024-02-26T11:40:47;99409.25;;;7.72;79.58
83248;BME280;73465;51.038;7.052;2024-02-26T11:43:12;99411.38;;;7.81;79.62
83248;BME280;73465;51.038;7.052;2024-02-26T11:45:47;99407.50;;;7.73;79.27
83248;BME280;73465;51.038;7.052;2024-02-26T11:48:22;99412.22;;;7.98;79.67
83248;BME280;73465;51.038;7.052;2024-02-26T11:50:55;99416.53;;;7.99;78.77
83248;BME280;73465;51.038;7.052;2024-02-26T11:53:32;99419.66;;;7.90;78.13
83248;BME280;73465;51.038;7.052;2024-02-26T11:58:58;99420.19;;;7.96;78.43
83248;BME280;73465;51.038;7.052;2024-02-26T12:01:44;99421.63;;;7.86;78.27
83248;BME280;73465;51.038;7.052;2024-02-26T12:04:16;99424.56;;;7.80;78.19
83248;BME280;73465;51.038;7.052;2024-02-26T12:06:43;99426.88;;;8.02;78.28
83248;BME280;73465;51.038;7.052;2024-02-26T12:09:11;99426.19;;;8.14;78.33
83248;BME280;73465;51.038;7.052;2024-02-26T12:11:38;99429.03;;;8.10;78.18
83248;BME280;73465;51.038;7.052;2024-02-26T12:14:06;99423.56;;;7.98;78.14
83248;BME280;73465;51.038;7.052;2024-02-26T12:16:37;99427.59;;;8.04;78.53
83248;BME280;73465;51.038;7.052;2024-02-26T12:19:07;99433.25;;;8.28;77.62
83248;BME280;73465;51.038;7.052;2024-02-26T12:21:34;99434.00;;;8.46;77.67
83248;BME280;73465;51.038;7.052;2024-02-26T12:24:10;99436.25;;;8.69;77.87
83248;BME280;73465;51.038;7.052;2024-02-26T12:26:36;99435.63;;;8.79;77.81
83248;BME280;73465;51.038;7.052;2024-02-26T12:29:02;99446.78;;;8.83;77.82
83248;BME280;73465;51.038;7.052;2024-02-26T12:31:28;99449.16;;;8.57;76.78
83248;BME280;73465;51.038;7.052;2024-02-26T12:33:56;99448.31;;;8.25;78.04
83248;BME280;73465;51.038;7.052;2024-02-26T12:36:25;99455.47;;;8.53;78.60
83248;BME280;73465;51.038;7.052;2024-02-26T12:38:51;99453.84;;;8.66;77.29
83248;BME280;73465;51.038;7.052;2024-02-26T12:41:16;99459.53;;;8.59;77.96
83248;BME280;73465;51.038;7.052;2024-02-26T12:43:42;99463.59;;;8.48;77.65
83248;BME280;73465;51.038;7.052;2024-02-26T12:46:07;99468.03;;;8.48;76.91
83248;BME280;73465;51.038;7.052;2024-02-26T12:48:33;99476.22;;;8.58;77.03
83248;BME280;73465;51.038;7.052;2024-02-26T12:50:59;99481.09;;;8.64;76.38
83248;BME280;73465;51.038;7.052;2024-02-26T12:53:25;99484.91;;;8.58;76.13
83248;BME280;73465;51.038;7.052;2024-02-26T12:55:50;99487.81;;;8.38;76.66
83248;BME280;73465;51.038;7.052;2024-02-26T12:58:16;99496.38;;;8.25;77.05
83248;BME280;73465;51.038;7.052;2024-02-26T13:00:42;99492.06;;;8.24;77.55
83248;BME280;73465;51.038;7.052;2024-02-26T13:03:11;99505.56;;;8.32;77.49
83248;BME280;73465;51.038;7.052;2024-02-26T13:05:37;99498.47;;;8.18;77.89
83248;BME280;73465;51.038;7.052;2024-02-26T13:08:02;99498.81;;;8.28;77.65